sensor_id;sensor_type;location;lat;lon;timestamp;temperature;humidity
73955;DHT22;62306;52.516;13.290;2023-04-06T00:03:23;5.30;83.70
73955;DHT22;62306;52.516;13.290;2023-04-06T00:05:51;5.20;83.90
73955;DHT22;62306;52.516;13.290;2023-04-06T00:08:18;5.20;84.70
73955;DHT22;62306;52.516;13.290;2023-04-06T00:10:47;5.20;84.90
73955;DHT22;62306;52.516;13.290;2023-04-06T00:13:14;5.10;84.40
73955;DHT22;62306;52.516;13.290;2023-04-06T00:15:41;5.10;84.80
73955;DHT22;62306;52.516;13.290;2023-04-06T00:18:08;5.10;85.10
73955;DHT22;62306;52.516;13.290;2023-04-06T00:20:37;5.00;85.30
73955;DHT22;62306;52.516;13.290;2023-04-06T00:23:05;5.00;85.20
73955;DHT22;62306;52.516;13.290;2023-04-06T00:25:32;4.90;85.10
73955;DHT22;62306;52.516;13.290;2023-04-06T00:27:59;4.90;85.50
73955;DHT22;62306;52.516;13.290;2023-04-06T00:30:26;4.90;85.80
73955;DHT22;62306;52.516;13.290;2023-04-06T00:32:53;4.90;85.70
73955;DHT22;62306;52.516;13.290;2023-04-06T00:35:20;4.80;85.90
73955;DHT22;62306;52.516;13.290;2023-04-06T00:37:49;4.80;86.00
73955;DHT22;62306;52.516;13.290;2023-04-06T00:40:16;4.80;86.00
73955;DHT22;62306;52.516;13.290;2023-04-06T00:42:43;4.80;86.10
73955;DHT22;62306;52.516;13.290;2023-04-06T00:45:11;4.70;86.30
73955;DHT22;62306;52.516;13.290;2023-04-06T00:47:38;4.70;86.70
73955;DHT22;62306;52.516;13.290;2023-04-06T00:50:06;4.70;86.70
73955;DHT22;62306;52.516;13.290;2023-04-06T00:52:34;4.70;86.90
73955;DHT22;62306;52.516;13.290;2023-04-06T00:55:03;4.70;87.00
73955;DHT22;62306;52.516;13.290;2023-04-06T00:57:31;4.60;86.90
73955;DHT22;62306;52.516;13.290;2023-04-06T00:59:58;4.60;86.80
73955;DHT22;62306;52.516;13.290;2023-04-06T01:02:25;4.60;87.00
73955;DHT22;62306;52.516;13.290;2023-04-06T01:04:53;4.50;87.00
73955;DHT22;62306;52.516;13.290;2023-04-06T01:07:21;4.60;87.10
73955;DHT22;62306;52.516;13.290;2023-04-06T01:09:48;4.50;87.50
73955;DHT22;62306;52.516;13.290;2023-04-06T01:12:17;4.50;87.40
73955;DHT22;62306;52.516;13.290;2023-04-06T01:14:44;4.50;87.20
73955;DHT22;62306;52.516;13.290;2023-04-06T01:17:11;4.40;87.60
73955;DHT22;62306;52.516;13.290;2023-04-06T01:19:38;4.40;87.80
73955;DHT22;62306;52.516;13.290;2023-04-06T01:22:06;4.40;87.50
73955;DHT22;62306;52.516;13.290;2023-04-06T01:24:35;4.40;87.70
73955;DHT22;62306;52.516;13.290;2023-04-06T01:27:02;4.40;87.80
73955;DHT22;62306;52.516;13.290;2023-04-06T01:29:29;4.30;88.40
73955;DHT22;62306;52.516;13.290;2023-04-06T01:31:56;4.30;88.40
73955;DHT22;62306;52.516;13.290;2023-04-06T01:34:23;4.80;89.10
73955;DHT22;62306;52.516;13.290;2023-04-06T01:36:50;4.20;88.90
73955;DHT22;62306;52.516;13.290;2023-04-06T01:39:18;4.20;89.40
73955;DHT22;62306;52.516;13.290;2023-04-06T01:41:47;4.20;89.60
73955;DHT22;62306;52.516;13.290;2023-04-06T01:44:16;4.20;89.50
73955;DHT22;62306;52.516;13.290;2023-04-06T01:46:44;4.20;89.50
73955;DHT22;62306;52.516;13.290;2023-04-06T01:49:12;4.20;89.50
73955;DHT22;62306;52.516;13.290;2023-04-06T01:51:39;4.10;89.50
73955;DHT22;62306;52.516;13.290;2023-04-06T01:54:06;4.10;89.70
73955;DHT22;62306;52.516;13.290;2023-04-06T01:56:33;4.10;90.00
73955;DHT22;62306;52.516;13.290;2023-04-06T01:59:02;4.10;90.00
73955;DHT22;62306;52.516;13.290;2023-04-06T02:01:29;4.00;90.00
73955;DHT22;62306;52.516;13.290;2023-04-06T02:03:56;4.00;90.10
73955;DHT22;62306;52.516;13.290;2023-04-06T02:06:23;4.00;90.20
73955;DHT22;62306;52.516;13.290;2023-04-06T02:08:52;3.90;90.20
73955;DHT22;62306;52.516;13.290;2023-04-06T02:11:19;3.90;90.20
73955;DHT22;62306;52.516;13.290;2023-04-06T02:13:46;3.90;90.40
73955;DHT22;62306;52.516;13.290;2023-04-06T02:16:14;3.80;90.40
73955;DHT22;62306;52.516;13.290;2023-04-06T02:18:42;3.80;90.50
73955;DHT22;62306;52.516;13.290;2023-04-06T02:21:09;3.80;90.50
73955;DHT22;62306;52.516;13.290;2023-04-06T02:23:36;3.80;90.50
73955;DHT22;62306;52.516;13.290;2023-04-06T02:26:03;3.80;90.60
73955;DHT22;62306;52.516;13.290;2023-04-06T02:28:30;3.70;90.70
73955;DHT22;62306;52.516;13.290;2023-04-06T02:30:57;3.60;90.90
73955;DHT22;62306;52.516;13.290;2023-04-06T02:33:26;3.50;91.00
73955;DHT22;62306;52.516;13.290;2023-04-06T02:35:53;3.50;91.20
73955;DHT22;62306;52.516;13.290;2023-04-06T02:38:21;3.50;91.40
73955;DHT22;62306;52.516;13.290;2023-04-06T02:40:48;3.40;91.60
73955;DHT22;62306;52.516;13.290;2023-04-06T02:43:15;3.30;91.70
73955;DHT22;62306;52.516;13.290;2023-04-06T02:45:42;3.30;91.80
73955;DHT22;62306;52.516;13.290;2023-04-06T02:48:10;3.30;91.90
73955;DHT22;62306;52.516;13.290;2023-04-06T02:50:38;3.30;92.00
73955;DHT22;62306;52.516;13.290;2023-04-06T02:53:05;3.30;92.10
73955;DHT22;62306;52.516;13.290;2023-04-06T02:55:32;3.20;92.30
73955;DHT22;62306;52.516;13.290;2023-04-06T02:57:59;3.20;92.40
73955;DHT22;62306;52.516;13.290;2023-04-06T03:00:26;3.20;92.50
73955;DHT22;62306;52.516;13.290;2023-04-06T03:02:53;3.10;92.50
73955;DHT22;62306;52.516;13.290;2023-04-06T03:05:21;3.10;92.60
73955;DHT22;62306;52.516;13.290;2023-04-06T03:07:49;3.10;92.50
73955;DHT22;62306;52.516;13.290;2023-04-06T03:10:17;3.10;92.50
73955;DHT22;62306;52.516;13.290;2023-04-06T03:12:44;3.10;92.60
73955;DHT22;62306;52.516;13.290;2023-04-06T03:15:11;3.10;92.60
73955;DHT22;62306;52.516;13.290;2023-04-06T03:17:39;3.00;92.70
73955;DHT22;62306;52.516;13.290;2023-04-06T03:20:07;3.10;92.70
73955;DHT22;62306;52.516;13.290;2023-04-06T03:22:34;3.00;92.80
73955;DHT22;62306;52.516;13.290;2023-04-06T03:25:03;3.00;93.00
73955;DHT22;62306;52.516;13.290;2023-04-06T03:27:30;3.00;92.90
73955;DHT22;62306;52.516;13.290;2023-04-06T03:29:58;3.00;92.80
73955;DHT22;62306;52.516;13.290;2023-04-06T03:32:25;3.00;92.90
73955;DHT22;62306;52.516;13.290;2023-04-06T03:34:52;2.90;92.90
73955;DHT22;62306;52.516;13.290;2023-04-06T03:37:19;2.90;92.90
73955;DHT22;62306;52.516;13.290;2023-04-06T03:39:46;2.90;92.80
73955;DHT22;62306;52.516;13.290;2023-04-06T03:42:15;2.80;92.90
73955;DHT22;62306;52.516;13.290;2023-04-06T03:44:42;2.80;93.00
73955;DHT22;62306;52.516;13.290;2023-04-06T03:47:09;2.80;92.90
73955;DHT22;62306;52.516;13.290;2023-04-06T03:49:36;2.80;92.90
73955;DHT22;62306;52.516;13.290;2023-04-06T03:52:04;2.80;92.90
73955;DHT22;62306;52.516;13.290;2023-04-06T03:54:31;2.80;92.90
73955;DHT22;62306;52.516;13.290;2023-04-06T03:56:58;2.80;93.00
73955;DHT22;62306;52.516;13.290;2023-04-06T03:59:27;2.80;93.10
73955;DHT22;62306;52.516;13.290;2023-04-06T04:01:55;2.80;92.80
73955;DHT22;62306;52.516;13.290;2023-04-06T04:04:22;2.70;92.60
73955;DHT22;62306;52.516;13.290;2023-04-06T04:06:49;2.80;92.90
73955;DHT22;62306;52.516;13.290;2023-04-06T04:09:16;2.80;92.90
73955;DHT22;62306;52.516;13.290;2023-04-06T04:11:43;2.80;92.90
73955;DHT22;62306;52.516;13.290;2023-04-06T04:14:10;2.70;92.90
73955;DHT22;62306;52.516;13.290;2023-04-06T04:16:39;2.80;92.60
73955;DHT22;62306;52.516;13.290;2023-04-06T04:19:07;2.80;92.60
73955;DHT22;62306;52.516;13.290;2023-04-06T04:21:41;2.80;92.40
73955;DHT22;62306;52.516;13.290;2023-04-06T04:24:09;2.80;92.60
73955;DHT22;62306;52.516;13.290;2023-04-06T04:26:36;2.80;92.70
73955;DHT22;62306;52.516;13.290;2023-04-06T04:29:04;2.80;92.70
73955;DHT22;62306;52.516;13.290;2023-04-06T04:31:31;2.80;92.70
73955;DHT22;62306;52.516;13.290;2023-04-06T04:34:00;2.80;92.70
73955;DHT22;62306;52.516;13.290;2023-04-06T04:36:27;2.80;92.60
73955;DHT22;62306;52.516;13.290;2023-04-06T04:38:54;2.80;92.60
73955;DHT22;62306;52.516;13.290;2023-04-06T04:41:21;2.80;92.80
73955;DHT22;62306;52.516;13.290;2023-04-06T04:43:48;2.80;92.80
73955;DHT22;62306;52.516;13.290;2023-04-06T04:46:15;2.80;92.80
73955;DHT22;62306;52.516;13.290;2023-04-06T04:48:43;2.80;92.80
73955;DHT22;62306;52.516;13.290;2023-04-06T04:51:11;2.90;92.60
73955;DHT22;62306;52.516;13.290;2023-04-06T04:53:38;2.90;92.60
73955;DHT22;62306;52.516;13.290;2023-04-06T04:56:05;2.90;92.70
73955;DHT22;62306;52.516;13.290;2023-04-06T04:58:33;2.90;92.80
73955;DHT22;62306;52.516;13.290;2023-04-06T05:01:01;2.90;93.10
73955;DHT22;62306;52.516;13.290;2023-04-06T05:03:28;2.80;93.20
73955;DHT22;62306;52.516;13.290;2023-04-06T05:05:55;2.80;93.40
73955;DHT22;62306;52.516;13.290;2023-04-06T05:08:24;2.90;93.30
73955;DHT22;62306;52.516;13.290;2023-04-06T05:10:51;2.90;93.40
73955;DHT22;62306;52.516;13.290;2023-04-06T05:13:18;3.00;93.20
73955;DHT22;62306;52.516;13.290;2023-04-06T05:15:45;3.00;93.00
73955;DHT22;62306;52.516;13.290;2023-04-06T05:18:13;3.10;92.80
73955;DHT22;62306;52.516;13.290;2023-04-06T05:20:40;3.10;92.70
73955;DHT22;62306;52.516;13.290;2023-04-06T05:23:07;3.20;92.40
73955;DHT22;62306;52.516;13.290;2023-04-06T05:25:36;3.20;92.50
73955;DHT22;62306;52.516;13.290;2023-04-06T05:28:03;3.30;92.40
73955;DHT22;62306;52.516;13.290;2023-04-06T05:30:30;3.30;92.10
73955;DHT22;62306;52.516;13.290;2023-04-06T05:32:57;3.30;92.10
73955;DHT22;62306;52.516;13.290;2023-04-06T05:35:25;3.30;92.10
73955;DHT22;62306;52.516;13.290;2023-04-06T05:37:52;3.40;92.00
73955;DHT22;62306;52.516;13.290;2023-04-06T05:40:19;3.50;91.90
73955;DHT22;62306;52.516;13.290;2023-04-06T05:42:47;3.60;91.70
73955;DHT22;62306;52.516;13.290;2023-04-06T05:45:15;3.60;91.60
73955;DHT22;62306;52.516;13.290;2023-04-06T05:47:44;3.70;91.50
73955;DHT22;62306;52.516;13.290;2023-04-06T05:50:12;3.80;91.30
73955;DHT22;62306;52.516;13.290;2023-04-06T05:52:39;3.90;91.00
73955;DHT22;62306;52.516;13.290;2023-04-06T05:55:09;4.20;90.70
73955;DHT22;62306;52.516;13.290;2023-04-06T05:57:36;4.40;89.90
73955;DHT22;62306;52.516;13.290;2023-04-06T06:00:07;4.70;88.90
73955;DHT22;62306;52.516;13.290;2023-04-06T06:02:35;5.00;87.00
73955;DHT22;62306;52.516;13.290;2023-04-06T06:05:03;5.30;86.00
73955;DHT22;62306;52.516;13.290;2023-04-06T06:07:30;5.60;84.90
73955;DHT22;62306;52.516;13.290;2023-04-06T06:09:58;5.90;83.10
73955;DHT22;62306;52.516;13.290;2023-04-06T06:12:25;6.20;82.20
73955;DHT22;62306;52.516;13.290;2023-04-06T06:14:52;6.40;79.50
73955;DHT22;62306;52.516;13.290;2023-04-06T06:17:21;6.60;79.70
73955;DHT22;62306;52.516;13.290;2023-04-06T06:19:48;6.90;78.90
73955;DHT22;62306;52.516;13.290;2023-04-06T06:22:15;6.80;76.90
73955;DHT22;62306;52.516;13.290;2023-04-06T06:24:42;7.00;77.10
73955;DHT22;62306;52.516;13.290;2023-04-06T06:27:09;7.40;76.10
73955;DHT22;62306;52.516;13.290;2023-04-06T06:29:37;7.60;74.60
73955;DHT22;62306;52.516;13.290;2023-04-06T06:32:04;7.50;74.30
73955;DHT22;62306;52.516;13.290;2023-04-06T06:34:33;7.60;74.20
73955;DHT22;62306;52.516;13.290;2023-04-06T06:37:00;7.80;72.60
73955;DHT22;62306;52.516;13.290;2023-04-06T06:39:28;7.90;72.30
73955;DHT22;62306;52.516;13.290;2023-04-06T06:41:55;8.10;72.40
73955;DHT22;62306;52.516;13.290;2023-04-06T06:44:22;8.20;71.30
73955;DHT22;62306;52.516;13.290;2023-04-06T06:46:50;8.20;71.00
73955;DHT22;62306;52.516;13.290;2023-04-06T06:49:18;8.00;70.60
73955;DHT22;62306;52.516;13.290;2023-04-06T06:51:47;8.00;70.90
73955;DHT22;62306;52.516;13.290;2023-04-06T06:54:14;8.30;69.50
73955;DHT22;62306;52.516;13.290;2023-04-06T06:56:41;8.60;68.90
73955;DHT22;62306;52.516;13.290;2023-04-06T06:59:08;8.80;67.30
73955;DHT22;62306;52.516;13.290;2023-04-06T07:01:36;8.90;66.60
73955;DHT22;62306;52.516;13.290;2023-04-06T07:04:04;9.10;65.80
73955;DHT22;62306;52.516;13.290;2023-04-06T07:06:31;9.10;65.50
73955;DHT22;62306;52.516;13.290;2023-04-06T07:09:00;9.30;65.30
73955;DHT22;62306;52.516;13.290;2023-04-06T07:11:28;9.40;64.50
73955;DHT22;62306;52.516;13.290;2023-04-06T07:13:56;9.40;62.30
73955;DHT22;62306;52.516;13.290;2023-04-06T07:16:23;9.20;63.10
73955;DHT22;62306;52.516;13.290;2023-04-06T07:18:50;9.10;63.40
73955;DHT22;62306;52.516;13.290;2023-04-06T07:21:17;9.10;64.50
73955;DHT22;62306;52.516;13.290;2023-04-06T07:23:44;9.30;63.80
73955;DHT22;62306;52.516;13.290;2023-04-06T07:26:15;9.20;62.30
73955;DHT22;62306;52.516;13.290;2023-04-06T07:28:42;9.50;61.40
73955;DHT22;62306;52.516;13.290;2023-04-06T07:31:09;9.70;61.30
73955;DHT22;62306;52.516;13.290;2023-04-06T07:33:36;9.80;60.80
73955;DHT22;62306;52.516;13.290;2023-04-06T07:36:04;10.10;58.80
73955;DHT22;62306;52.516;13.290;2023-04-06T07:38:31;10.30;57.40
73955;DHT22;62306;52.516;13.290;2023-04-06T07:40:58;10.50;54.60
73955;DHT22;62306;52.516;13.290;2023-04-06T07:43:27;10.70;54.40
73955;DHT22;62306;52.516;13.290;2023-04-06T07:45:54;10.70;53.40
73955;DHT22;62306;52.516;13.290;2023-04-06T07:48:22;10.70;52.80
73955;DHT22;62306;52.516;13.290;2023-04-06T07:50:50;10.90;53.50
73955;DHT22;62306;52.516;13.290;2023-04-06T07:53:17;11.10;52.30
73955;DHT22;62306;52.516;13.290;2023-04-06T07:55:44;11.30;51.60
73955;DHT22;62306;52.516;13.290;2023-04-06T07:58:11;11.40;51.20
73955;DHT22;62306;52.516;13.290;2023-04-06T08:00:39;11.50;50.90
73955;DHT22;62306;52.516;13.290;2023-04-06T08:03:06;11.40;50.50
73955;DHT22;62306;52.516;13.290;2023-04-06T08:05:33;11.50;49.40
73955;DHT22;62306;52.516;13.290;2023-04-06T08:08:01;11.40;50.70
73955;DHT22;62306;52.516;13.290;2023-04-06T08:10:28;11.10;49.70
73955;DHT22;62306;52.516;13.290;2023-04-06T08:12:55;11.10;49.90
73955;DHT22;62306;52.516;13.290;2023-04-06T08:15:22;11.40;49.20
73955;DHT22;62306;52.516;13.290;2023-04-06T08:17:51;11.60;48.30
73955;DHT22;62306;52.516;13.290;2023-04-06T08:20:18;11.90;48.00
73955;DHT22;62306;52.516;13.290;2023-04-06T08:22:45;11.70;48.30
73955;DHT22;62306;52.516;13.290;2023-04-06T08:25:12;11.30;47.30
73955;DHT22;62306;52.516;13.290;2023-04-06T08:27:39;11.40;47.80
73955;DHT22;62306;52.516;13.290;2023-04-06T08:30:07;11.60;47.90
73955;DHT22;62306;52.516;13.290;2023-04-06T08:32:34;11.80;48.10
73955;DHT22;62306;52.516;13.290;2023-04-06T08:35:03;12.00;46.20
73955;DHT22;62306;52.516;13.290;2023-04-06T08:37:30;11.70;46.80
73955;DHT22;62306;52.516;13.290;2023-04-06T08:39:58;11.70;46.70
73955;DHT22;62306;52.516;13.290;2023-04-06T08:42:26;11.90;47.10
73955;DHT22;62306;52.516;13.290;2023-04-06T08:44:55;11.90;45.30
73955;DHT22;62306;52.516;13.290;2023-04-06T08:47:22;12.00;45.80
73955;DHT22;62306;52.516;13.290;2023-04-06T08:49:50;11.80;45.10
73955;DHT22;62306;52.516;13.290;2023-04-06T08:52:19;11.80;45.60
73955;DHT22;62306;52.516;13.290;2023-04-06T08:54:47;12.10;45.20
73955;DHT22;62306;52.516;13.290;2023-04-06T08:57:15;12.20;44.60
73955;DHT22;62306;52.516;13.290;2023-04-06T08:59:43;12.40;44.20
73955;DHT22;62306;52.516;13.290;2023-04-06T09:02:15;12.50;43.20
73955;DHT22;62306;52.516;13.290;2023-04-06T09:04:45;12.40;42.30
73955;DHT22;62306;52.516;13.290;2023-04-06T09:07:12;12.00;42.70
73955;DHT22;62306;52.516;13.290;2023-04-06T09:09:41;11.90;42.00
73955;DHT22;62306;52.516;13.290;2023-04-06T09:12:22;11.80;42.90
73955;DHT22;62306;52.516;13.290;2023-04-06T09:14:50;11.80;43.40
73955;DHT22;62306;52.516;13.290;2023-04-06T09:17:21;11.50;43.60
73955;DHT22;62306;52.516;13.290;2023-04-06T09:19:48;11.50;43.80
73955;DHT22;62306;52.516;13.290;2023-04-06T09:22:16;11.70;44.20
73955;DHT22;62306;52.516;13.290;2023-04-06T09:24:46;12.00;43.30
73955;DHT22;62306;52.516;13.290;2023-04-06T09:27:14;12.30;42.60
73955;DHT22;62306;52.516;13.290;2023-04-06T09:29:42;12.50;41.10
73955;DHT22;62306;52.516;13.290;2023-04-06T09:32:11;12.40;41.40
73955;DHT22;62306;52.516;13.290;2023-04-06T09:34:42;12.20;41.40
73955;DHT22;62306;52.516;13.290;2023-04-06T09:37:14;11.80;42.10
73955;DHT22;62306;52.516;13.290;2023-04-06T09:39:42;12.00;41.70
73955;DHT22;62306;52.516;13.290;2023-04-06T09:42:22;12.20;41.80
73955;DHT22;62306;52.516;13.290;2023-04-06T09:44:50;12.50;40.80
73955;DHT22;62306;52.516;13.290;2023-04-06T09:47:17;12.30;39.80
73955;DHT22;62306;52.516;13.290;2023-04-06T09:49:45;12.10;40.90
73955;DHT22;62306;52.516;13.290;2023-04-06T09:52:14;11.60;42.60
73955;DHT22;62306;52.516;13.290;2023-04-06T09:54:43;11.50;43.60
73955;DHT22;62306;52.516;13.290;2023-04-06T09:57:19;11.40;43.50
73955;DHT22;62306;52.516;13.290;2023-04-06T09:59:53;11.60;43.30
73955;DHT22;62306;52.516;13.290;2023-04-06T10:02:27;11.60;42.90
73955;DHT22;62306;52.516;13.290;2023-04-06T10:05:00;11.80;42.10
73955;DHT22;62306;52.516;13.290;2023-04-06T10:07:29;12.10;41.00
73955;DHT22;62306;52.516;13.290;2023-04-06T10:09:58;12.20;40.80
73955;DHT22;62306;52.516;13.290;2023-04-06T10:12:27;12.30;40.50
73955;DHT22;62306;52.516;13.290;2023-04-06T10:14:55;12.30;40.10
73955;DHT22;62306;52.516;13.290;2023-04-06T10:17:23;12.30;40.20
73955;DHT22;62306;52.516;13.290;2023-04-06T10:19:54;12.50;40.30
73955;DHT22;62306;52.516;13.290;2023-04-06T10:22:26;12.70;38.30
73955;DHT22;62306;52.516;13.290;2023-04-06T10:24:56;12.80;38.00
73955;DHT22;62306;52.516;13.290;2023-04-06T10:27:31;12.70;38.00
73955;DHT22;62306;52.516;13.290;2023-04-06T10:30:02;12.80;37.20
73955;DHT22;62306;52.516;13.290;2023-04-06T10:32:34;12.20;37.60
73955;DHT22;62306;52.516;13.290;2023-04-06T10:35:07;12.00;38.90
73955;DHT22;62306;52.516;13.290;2023-04-06T10:37:47;12.10;39.40
73955;DHT22;62306;52.516;13.290;2023-04-06T10:40:22;12.00;38.50
73955;DHT22;62306;52.516;13.290;2023-04-06T10:42:53;12.30;37.90
73955;DHT22;62306;52.516;13.290;2023-04-06T10:45:22;12.60;38.10
73955;DHT22;62306;52.516;13.290;2023-04-06T10:47:50;12.90;37.80
73955;DHT22;62306;52.516;13.290;2023-04-06T10:50:19;12.90;37.60
73955;DHT22;62306;52.516;13.290;2023-04-06T10:52:46;12.50;37.20
73955;DHT22;62306;52.516;13.290;2023-04-06T10:55:14;12.30;37.20
73955;DHT22;62306;52.516;13.290;2023-04-06T10:57:41;11.90;38.00
73955;DHT22;62306;52.516;13.290;2023-04-06T11:00:12;11.70;38.10
73955;DHT22;62306;52.516;13.290;2023-04-06T11:02:39;11.70;38.10
73955;DHT22;62306;52.516;13.290;2023-04-06T11:07:39;11.90;38.60
73955;DHT22;62306;52.516;13.290;2023-04-06T11:10:08;12.10;37.00
73955;DHT22;62306;52.516;13.290;2023-04-06T11:12:35;12.10;35.20
73955;DHT22;62306;52.516;13.290;2023-04-06T11:15:04;12.20;35.60
73955;DHT22;62306;52.516;13.290;2023-04-06T11:17:34;12.60;35.30
73955;DHT22;62306;52.516;13.290;2023-04-06T11:20:02;12.90;34.80
73955;DHT22;62306;52.516;13.290;2023-04-06T11:22:30;13.00;35.00
73955;DHT22;62306;52.516;13.290;2023-04-06T11:25:05;12.80;35.80
73955;DHT22;62306;52.516;13.290;2023-04-06T11:27:33;13.00;36.20
73955;DHT22;62306;52.516;13.290;2023-04-06T11:30:00;12.80;36.00
73955;DHT22;62306;52.516;13.290;2023-04-06T11:32:28;12.30;36.80
73955;DHT22;62306;52.516;13.290;2023-04-06T11:34:58;12.30;37.10
73955;DHT22;62306;52.516;13.290;2023-04-06T11:37:26;12.40;36.90
73955;DHT22;62306;52.516;13.290;2023-04-06T11:39:55;12.40;36.40
73955;DHT22;62306;52.516;13.290;2023-04-06T11:42:23;12.70;36.00
73955;DHT22;62306;52.516;13.290;2023-04-06T11:44:51;12.80;34.70
73955;DHT22;62306;52.516;13.290;2023-04-06T11:47:19;12.80;35.80
73955;DHT22;62306;52.516;13.290;2023-04-06T11:49:48;13.10;35.00
73955;DHT22;62306;52.516;13.290;2023-04-06T11:52:18;13.20;35.50
73955;DHT22;62306;52.516;13.290;2023-04-06T11:54:46;13.10;35.20
73955;DHT22;62306;52.516;13.290;2023-04-06T11:57:14;13.00;35.10
73955;DHT22;62306;52.516;13.290;2023-04-06T11:59:42;12.60;35.90
73955;DHT22;62306;52.516;13.290;2023-04-06T12:02:10;12.50;36.30
73955;DHT22;62306;52.516;13.290;2023-04-06T12:04:37;12.70;35.60
73955;DHT22;62306;52.516;13.290;2023-04-06T12:07:05;12.70;34.30
73955;DHT22;62306;52.516;13.290;2023-04-06T12:09:33;12.50;35.00
73955;DHT22;62306;52.516;13.290;2023-04-06T12:12:02;12.40;35.40
73955;DHT22;62306;52.516;13.290;2023-04-06T12:14:29;12.60;34.30
73955;DHT22;62306;52.516;13.290;2023-04-06T12:16:57;12.60;33.20
73955;DHT22;62306;52.516;13.290;2023-04-06T12:19:24;12.60;32.90
73955;DHT22;62306;52.516;13.290;2023-04-06T12:21:51;12.90;33.10
73955;DHT22;62306;52.516;13.290;2023-04-06T12:24:20;12.70;33.10
73955;DHT22;62306;52.516;13.290;2023-04-06T12:26:48;12.20;33.20
73955;DHT22;62306;52.516;13.290;2023-04-06T12:29:15;12.20;33.40
73955;DHT22;62306;52.516;13.290;2023-04-06T12:31:43;12.10;34.60
73955;DHT22;62306;52.516;13.290;2023-04-06T12:34:10;12.10;35.00
73955;DHT22;62306;52.516;13.290;2023-04-06T12:36:38;12.60;34.80
73955;DHT22;62306;52.516;13.290;2023-04-06T12:39:05;12.90;34.10
73955;DHT22;62306;52.516;13.290;2023-04-06T12:41:32;13.30;33.40
73955;DHT22;62306;52.516;13.290;2023-04-06T12:44:01;13.50;32.90
73955;DHT22;62306;52.516;13.290;2023-04-06T12:46:29;13.00;33.80
73955;DHT22;62306;52.516;13.290;2023-04-06T12:48:56;12.90;34.30
73955;DHT22;62306;52.516;13.290;2023-04-06T12:51:25;12.80;34.50
73955;DHT22;62306;52.516;13.290;2023-04-06T12:53:54;13.10;34.10
73955;DHT22;62306;52.516;13.290;2023-04-06T12:56:21;13.10;34.20
73955;DHT22;62306;52.516;13.290;2023-04-06T12:58:49;13.00;33.30
73955;DHT22;62306;52.516;13.290;2023-04-06T13:01:18;13.10;33.20
73955;DHT22;62306;52.516;13.290;2023-04-06T13:03:45;12.70;33.70
73955;DHT22;62306;52.516;13.290;2023-04-06T13:06:12;12.60;34.10
73955;DHT22;62306;52.516;13.290;2023-04-06T13:08:41;12.60;34.40
73955;DHT22;62306;52.516;13.290;2023-04-06T13:11:08;12.90;34.60
73955;DHT22;62306;52.516;13.290;2023-04-06T13:13:36;13.20;33.70
73955;DHT22;62306;52.516;13.290;2023-04-06T13:16:04;12.90;33.70
73955;DHT22;62306;52.516;13.290;2023-04-06T13:18:33;12.50;33.90
73955;DHT22;62306;52.516;13.290;2023-04-06T13:21:02;12.50;34.30
73955;DHT22;62306;52.516;13.290;2023-04-06T13:23:29;12.60;34.80
73955;DHT22;62306;52.516;13.290;2023-04-06T13:26:00;12.60;34.60
73955;DHT22;62306;52.516;13.290;2023-04-06T13:28:27;12.50;34.80
73955;DHT22;62306;52.516;13.290;2023-04-06T13:30:55;12.30;34.60
73955;DHT22;62306;52.516;13.290;2023-04-06T13:33:22;11.90;35.20
73955;DHT22;62306;52.516;13.290;2023-04-06T13:35:51;11.90;35.60
73955;DHT22;62306;52.516;13.290;2023-04-06T13:38:18;12.40;35.40
73955;DHT22;62306;52.516;13.290;2023-04-06T13:40:45;13.00;34.40
73955;DHT22;62306;52.516;13.290;2023-04-06T13:43:12;13.10;33.40
73955;DHT22;62306;52.516;13.290;2023-04-06T13:45:39;13.10;33.80
73955;DHT22;62306;52.516;13.290;2023-04-06T13:48:06;13.30;33.60
73955;DHT22;62306;52.516;13.290;2023-04-06T13:50:33;13.20;34.00
73955;DHT22;62306;52.516;13.290;2023-04-06T13:53:02;12.90;34.20
73955;DHT22;62306;52.516;13.290;2023-04-06T13:55:29;12.60;34.90
73955;DHT22;62306;52.516;13.290;2023-04-06T13:57:56;12.70;35.20
73955;DHT22;62306;52.516;13.290;2023-04-06T14:00:24;12.80;35.20
73955;DHT22;62306;52.516;13.290;2023-04-06T14:02:53;12.90;35.30
73955;DHT22;62306;52.516;13.290;2023-04-06T14:05:20;13.00;34.90
73955;DHT22;62306;52.516;13.290;2023-04-06T14:07:47;13.20;35.00
73955;DHT22;62306;52.516;13.290;2023-04-06T14:10:16;12.80;35.60
73955;DHT22;62306;52.516;13.290;2023-04-06T14:12:43;12.60;36.00
73955;DHT22;62306;52.516;13.290;2023-04-06T14:15:11;12.50;35.80
73955;DHT22;62306;52.516;13.290;2023-04-06T14:17:38;12.50;36.00
73955;DHT22;62306;52.516;13.290;2023-04-06T14:20:06;12.50;35.90
73955;DHT22;62306;52.516;13.290;2023-04-06T14:22:39;12.20;35.90
73955;DHT22;62306;52.516;13.290;2023-04-06T14:25:07;12.40;35.70
73955;DHT22;62306;52.516;13.290;2023-04-06T14:27:36;12.10;35.80
73955;DHT22;62306;52.516;13.290;2023-04-06T14:30:04;12.10;36.70
73955;DHT22;62306;52.516;13.290;2023-04-06T14:32:31;12.20;36.70
73955;DHT22;62306;52.516;13.290;2023-04-06T14:34:58;12.20;36.50
73955;DHT22;62306;52.516;13.290;2023-04-06T14:37:25;12.10;36.30
73955;DHT22;62306;52.516;13.290;2023-04-06T14:39:52;12.20;35.90
73955;DHT22;62306;52.516;13.290;2023-04-06T14:42:19;12.40;35.60
73955;DHT22;62306;52.516;13.290;2023-04-06T14:44:47;12.50;35.00
73955;DHT22;62306;52.516;13.290;2023-04-06T14:47:14;12.40;36.10
73955;DHT22;62306;52.516;13.290;2023-04-06T14:49:45;12.60;36.20
73955;DHT22;62306;52.516;13.290;2023-04-06T14:52:12;12.60;36.00
73955;DHT22;62306;52.516;13.290;2023-04-06T14:54:40;12.70;35.60
73955;DHT22;62306;52.516;13.290;2023-04-06T14:57:06;12.50;35.80
73955;DHT22;62306;52.516;13.290;2023-04-06T14:59:33;12.20;36.70
73955;DHT22;62306;52.516;13.290;2023-04-06T15:02:02;12.10;36.90
73955;DHT22;62306;52.516;13.290;2023-04-06T15:04:29;12.20;36.80
73955;DHT22;62306;52.516;13.290;2023-04-06T15:06:56;12.20;36.60
73955;DHT22;62306;52.516;13.290;2023-04-06T15:09:23;12.40;36.60
73955;DHT22;62306;52.516;13.290;2023-04-06T15:11:50;12.30;37.20
73955;DHT22;62306;52.516;13.290;2023-04-06T15:14:17;12.30;37.60
73955;DHT22;62306;52.516;13.290;2023-04-06T15:16:44;12.40;37.30
73955;DHT22;62306;52.516;13.290;2023-04-06T15:19:12;12.50;37.20
73955;DHT22;62306;52.516;13.290;2023-04-06T15:21:39;12.70;37.20
73955;DHT22;62306;52.516;13.290;2023-04-06T15:24:07;12.90;36.80
73955;DHT22;62306;52.516;13.290;2023-04-06T15:26:35;13.00;35.50
73955;DHT22;62306;52.516;13.290;2023-04-06T15:29:02;12.90;35.50
73955;DHT22;62306;52.516;13.290;2023-04-06T15:31:29;12.50;36.00